sensor_id;sensor_type;location;lat;lon;timestamp;P1;durP1;ratioP1;P2;durP2;ratioP2
10537;SDS011;5317;49.048;8.468;2023-07-24T00:01:04;7.57;;;5.60;;
10537;SDS011;5317;49.048;8.468;2023-07-24T00:03:31;6.63;;;5.50;;
10537;SDS011;5317;49.048;8.468;2023-07-24T00:05:58;7.57;;;5.90;;
10537;SDS011;5317;49.048;8.468;2023-07-24T00:08:25;8.83;;;5.57;;
10537;SDS011;5317;49.048;8.468;2023-07-24T00:10:53;7.20;;;5.53;;
10537;SDS011;5317;49.048;8.468;2023-07-24T00:13:20;6.53;;;5.13;;
10537;SDS011;5317;49.048;8.468;2023-07-24T00:15:47;5.73;;;5.20;;
10537;SDS011;5317;49.048;8.468;2023-07-24T00:18:14;8.50;;;5.77;;
10537;SDS011;5317;49.048;8.468;2023-07-24T00:20:40;6.43;;;5.17;;
10537;SDS011;5317;49.048;8.468;2023-07-24T00:23:07;7.13;;;5.40;;
10537;SDS011;5317;49.048;8.468;2023-07-24T00:25:34;7.30;;;5.40;;
10537;SDS011;5317;49.048;8.468;2023-07-24T00:28:02;7.50;;;5.90;;
10537;SDS011;5317;49.048;8.468;2023-07-24T00:30:29;6.83;;;5.03;;
10537;SDS011;5317;49.048;8.468;2023-07-24T00:32:56;6.90;;;5.43;;
10537;SDS011;5317;49.048;8.468;2023-07-24T00:35:24;6.83;;;5.10;;
10537;SDS011;5317;49.048;8.468;2023-07-24T00:37:52;6.03;;;5.40;;
10537;SDS011;5317;49.048;8.468;2023-07-24T00:40:19;7.53;;;4.90;;
10537;SDS011;5317;49.048;8.468;2023-07-24T00:42:46;6.37;;;5.23;;
10537;SDS011;5317;49.048;8.468;2023-07-24T00:45:15;6.73;;;5.53;;
10537;SDS011;5317;49.048;8.468;2023-07-24T00:47:42;5.97;;;4.70;;
10537;SDS011;5317;49.048;8.468;2023-07-24T00:50:10;6.30;;;5.30;;
10537;SDS011;5317;49.048;8.468;2023-07-24T00:52:38;6.63;;;5.37;;
10537;SDS011;5317;49.048;8.468;2023-07-24T00:55:05;7.00;;;5.17;;
10537;SDS011;5317;49.048;8.468;2023-07-24T00:57:33;7.03;;;5.80;;
10537;SDS011;5317;49.048;8.468;2023-07-24T01:00:01;6.93;;;5.13;;
10537;SDS011;5317;49.048;8.468;2023-07-24T01:02:30;7.33;;;5.77;;
10537;SDS011;5317;49.048;8.468;2023-07-24T01:04:57;6.87;;;5.53;;
10537;SDS011;5317;49.048;8.468;2023-07-24T01:07:24;7.23;;;5.70;;
10537;SDS011;5317;49.048;8.468;2023-07-24T01:09:51;6.83;;;5.33;;
10537;SDS011;5317;49.048;8.468;2023-07-24T01:12:19;8.87;;;6.07;;
10537;SDS011;5317;49.048;8.468;2023-07-24T01:14:54;6.47;;;5.40;;
10537;SDS011;5317;49.048;8.468;2023-07-24T01:17:30;7.27;;;5.83;;
10537;SDS011;5317;49.048;8.468;2023-07-24T01:19:59;6.60;;;5.53;;
10537;SDS011;5317;49.048;8.468;2023-07-24T01:22:32;7.20;;;5.77;;
10537;SDS011;5317;49.048;8.468;2023-07-24T01:25:09;7.27;;;5.37;;
10537;SDS011;5317;49.048;8.468;2023-07-24T01:27:45;6.30;;;5.70;;
10537;SDS011;5317;49.048;8.468;2023-07-24T01:30:13;6.83;;;5.53;;
10537;SDS011;5317;49.048;8.468;2023-07-24T01:32:43;6.17;;;5.47;;
10537;SDS011;5317;49.048;8.468;2023-07-24T01:35:11;6.73;;;6.03;;
10537;SDS011;5317;49.048;8.468;2023-07-24T01:37:38;6.20;;;5.27;;
10537;SDS011;5317;49.048;8.468;2023-07-24T01:40:06;7.03;;;5.60;;
10537;SDS011;5317;49.048;8.468;2023-07-24T01:42:34;7.07;;;5.90;;
10537;SDS011;5317;49.048;8.468;2023-07-24T01:45:03;6.40;;;5.73;;
10537;SDS011;5317;49.048;8.468;2023-07-24T01:47:31;6.67;;;5.47;;
10537;SDS011;5317;49.048;8.468;2023-07-24T01:49:58;6.37;;;4.90;;
10537;SDS011;5317;49.048;8.468;2023-07-24T01:52:25;6.40;;;4.93;;
10537;SDS011;5317;49.048;8.468;2023-07-24T01:54:52;6.77;;;4.80;;
10537;SDS011;5317;49.048;8.468;2023-07-24T01:57:19;6.73;;;5.57;;
10537;SDS011;5317;49.048;8.468;2023-07-24T01:59:45;8.50;;;5.27;;
10537;SDS011;5317;49.048;8.468;2023-07-24T02:02:15;6.60;;;4.83;;
10537;SDS011;5317;49.048;8.468;2023-07-24T02:04:42;7.03;;;5.87;;
10537;SDS011;5317;49.048;8.468;2023-07-24T02:07:09;6.20;;;5.43;;
10537;SDS011;5317;49.048;8.468;2023-07-24T02:09:35;9.07;;;6.97;;
10537;SDS011;5317;49.048;8.468;2023-07-24T02:12:02;7.83;;;5.90;;
10537;SDS011;5317;49.048;8.468;2023-07-24T02:14:30;7.80;;;5.37;;
10537;SDS011;5317;49.048;8.468;2023-07-24T02:16:57;7.53;;;5.60;;
10537;SDS011;5317;49.048;8.468;2023-07-24T02:19:25;7.90;;;5.90;;
10537;SDS011;5317;49.048;8.468;2023-07-24T02:21:52;6.13;;;5.10;;
10537;SDS011;5317;49.048;8.468;2023-07-24T02:24:18;6.07;;;5.23;;
10537;SDS011;5317;49.048;8.468;2023-07-24T02:26:45;7.20;;;5.70;;
10537;SDS011;5317;49.048;8.468;2023-07-24T02:29:12;6.60;;;5.57;;
10537;SDS011;5317;49.048;8.468;2023-07-24T02:31:39;6.60;;;5.50;;
10537;SDS011;5317;49.048;8.468;2023-07-24T02:34:06;6.90;;;5.57;;
10537;SDS011;5317;49.048;8.468;2023-07-24T02:36:34;6.43;;;5.73;;
10537;SDS011;5317;49.048;8.468;2023-07-24T02:39:01;7.13;;;5.67;;
10537;SDS011;5317;49.048;8.468;2023-07-24T02:41:28;6.77;;;5.73;;
10537;SDS011;5317;49.048;8.468;2023-07-24T02:43:55;6.43;;;5.53;;
10537;SDS011;5317;49.048;8.468;2023-07-24T02:46:22;7.07;;;5.67;;
10537;SDS011;5317;49.048;8.468;2023-07-24T02:48:49;8.53;;;5.60;;
10537;SDS011;5317;49.048;8.468;2023-07-24T02:51:16;6.80;;;5.57;;
10537;SDS011;5317;49.048;8.468;2023-07-24T02:53:44;7.70;;;5.63;;
10537;SDS011;5317;49.048;8.468;2023-07-24T02:56:11;6.10;;;5.43;;
10537;SDS011;5317;49.048;8.468;2023-07-24T02:58:38;7.53;;;5.10;;
10537;SDS011;5317;49.048;8.468;2023-07-24T03:01:05;9.40;;;5.80;;
10537;SDS011;5317;49.048;8.468;2023-07-24T03:03:33;6.10;;;5.20;;
10537;SDS011;5317;49.048;8.468;2023-07-24T03:06:00;6.90;;;5.77;;
10537;SDS011;5317;49.048;8.468;2023-07-24T03:08:27;7.27;;;6.00;;
10537;SDS011;5317;49.048;8.468;2023-07-24T03:10:55;6.10;;;5.20;;
10537;SDS011;5317;49.048;8.468;2023-07-24T03:13:22;6.87;;;4.60;;
10537;SDS011;5317;49.048;8.468;2023-07-24T03:15:52;6.33;;;5.17;;
10537;SDS011;5317;49.048;8.468;2023-07-24T03:18:20;7.77;;;5.80;;
10537;SDS011;5317;49.048;8.468;2023-07-24T03:20:46;7.57;;;6.27;;
10537;SDS011;5317;49.048;8.468;2023-07-24T03:23:13;6.60;;;5.80;;
10537;SDS011;5317;49.048;8.468;2023-07-24T03:25:40;7.00;;;5.77;;
10537;SDS011;5317;49.048;8.468;2023-07-24T03:28:09;6.87;;;5.50;;
10537;SDS011;5317;49.048;8.468;2023-07-24T03:30:36;8.00;;;6.30;;
10537;SDS011;5317;49.048;8.468;2023-07-24T03:33:03;7.77;;;6.10;;
10537;SDS011;5317;49.048;8.468;2023-07-24T03:35:31;8.20;;;6.47;;
10537;SDS011;5317;49.048;8.468;2023-07-24T03:37:58;7.33;;;5.90;;
10537;SDS011;5317;49.048;8.468;2023-07-24T03:40:25;6.20;;;5.50;;
10537;SDS011;5317;49.048;8.468;2023-07-24T03:42:51;7.60;;;6.00;;
10537;SDS011;5317;49.048;8.468;2023-07-24T03:45:20;7.93;;;6.50;;
10537;SDS011;5317;49.048;8.468;2023-07-24T03:47:46;7.47;;;6.20;;
10537;SDS011;5317;49.048;8.468;2023-07-24T03:50:13;6.70;;;5.90;;
10537;SDS011;5317;49.048;8.468;2023-07-24T03:52:40;7.20;;;5.60;;
10537;SDS011;5317;49.048;8.468;2023-07-24T03:55:07;7.47;;;6.13;;
10537;SDS011;5317;49.048;8.468;2023-07-24T03:57:35;8.33;;;6.47;;
10537;SDS011;5317;49.048;8.468;2023-07-24T04:00:02;8.37;;;6.80;;
10537;SDS011;5317;49.048;8.468;2023-07-24T04:02:32;8.77;;;6.50;;
10537;SDS011;5317;49.048;8.468;2023-07-24T04:04:58;7.57;;;5.93;;
10537;SDS011;5317;49.048;8.468;2023-07-24T04:07:25;7.70;;;6.10;;
10537;SDS011;5317;49.048;8.468;2023-07-24T04:09:52;7.87;;;6.37;;
10537;SDS011;5317;49.048;8.468;2023-07-24T04:12:19;8.47;;;7.10;;
10537;SDS011;5317;49.048;8.468;2023-07-24T04:14:46;8.90;;;6.40;;
10537;SDS011;5317;49.048;8.468;2023-07-24T04:17:13;6.47;;;5.67;;
10537;SDS011;5317;49.048;8.468;2023-07-24T04:19:42;8.90;;;6.37;;
10537;SDS011;5317;49.048;8.468;2023-07-24T04:22:09;9.13;;;6.57;;
10537;SDS011;5317;49.048;8.468;2023-07-24T04:24:35;7.87;;;6.33;;
10537;SDS011;5317;49.048;8.468;2023-07-24T04:27:02;8.83;;;6.33;;
10537;SDS011;5317;49.048;8.468;2023-07-24T04:29:29;9.80;;;6.10;;
10537;SDS011;5317;49.048;8.468;2023-07-24T04:31:56;8.43;;;6.20;;
10537;SDS011;5317;49.048;8.468;2023-07-24T04:34:23;9.57;;;6.40;;
10537;SDS011;5317;49.048;8.468;2023-07-24T04:36:51;8.43;;;5.97;;
10537;SDS011;5317;49.048;8.468;2023-07-24T04:39:18;7.90;;;6.13;;
10537;SDS011;5317;49.048;8.468;2023-07-24T04:41:45;7.40;;;6.10;;
10537;SDS011;5317;49.048;8.468;2023-07-24T04:44:12;7.83;;;6.10;;
10537;SDS011;5317;49.048;8.468;2023-07-24T04:46:38;8.33;;;6.37;;
10537;SDS011;5317;49.048;8.468;2023-07-24T04:49:05;9.07;;;6.50;;
10537;SDS011;5317;49.048;8.468;2023-07-24T04:51:32;8.27;;;6.67;;
10537;SDS011;5317;49.048;8.468;2023-07-24T04:54:00;8.03;;;6.43;;
10537;SDS011;5317;49.048;8.468;2023-07-24T04:56:27;9.73;;;6.63;;
10537;SDS011;5317;49.048;8.468;2023-07-24T04:58:54;11.57;;;6.90;;
10537;SDS011;5317;49.048;8.468;2023-07-24T05:01:20;9.23;;;6.63;;
10537;SDS011;5317;49.048;8.468;2023-07-24T05:03:47;9.53;;;7.13;;
10537;SDS011;5317;49.048;8.468;2023-07-24T05:06:14;9.97;;;6.60;;
10537;SDS011;5317;49.048;8.468;2023-07-24T05:08:41;11.43;;;6.57;;
10537;SDS011;5317;49.048;8.468;2023-07-24T05:11:09;9.23;;;6.70;;
10537;SDS011;5317;49.048;8.468;2023-07-24T05:13:36;9.33;;;6.70;;
10537;SDS011;5317;49.048;8.468;2023-07-24T05:16:03;8.23;;;6.70;;
10537;SDS011;5317;49.048;8.468;2023-07-24T05:18:30;6.50;;;5.77;;
10537;SDS011;5317;49.048;8.468;2023-07-24T05:20:56;9.23;;;6.87;;
10537;SDS011;5317;49.048;8.468;2023-07-24T05:23:23;7.33;;;6.13;;
10537;SDS011;5317;49.048;8.468;2023-07-24T05:25:55;7.23;;;6.27;;
10537;SDS011;5317;49.048;8.468;2023-07-24T05:28:25;8.13;;;6.67;;
10537;SDS011;5317;49.048;8.468;2023-07-24T05:30:52;7.67;;;6.87;;
10537;SDS011;5317;49.048;8.468;2023-07-24T05:33:19;8.07;;;6.57;;
10537;SDS011;5317;49.048;8.468;2023-07-24T05:35:47;8.73;;;6.87;;
10537;SDS011;5317;49.048;8.468;2023-07-24T05:38:14;8.93;;;6.70;;
10537;SDS011;5317;49.048;8.468;2023-07-24T05:40:41;8.03;;;6.43;;
10537;SDS011;5317;49.048;8.468;2023-07-24T05:43:08;9.20;;;7.03;;
10537;SDS011;5317;49.048;8.468;2023-07-24T05:45:36;9.97;;;7.00;;
10537;SDS011;5317;49.048;8.468;2023-07-24T05:48:03;8.10;;;6.83;;
10537;SDS011;5317;49.048;8.468;2023-07-24T05:50:30;8.40;;;6.53;;
10537;SDS011;5317;49.048;8.468;2023-07-24T05:52:57;9.60;;;6.80;;
10537;SDS011;5317;49.048;8.468;2023-07-24T05:55:24;10.37;;;6.80;;
10537;SDS011;5317;49.048;8.468;2023-07-24T05:57:51;7.27;;;6.07;;
10537;SDS011;5317;49.048;8.468;2023-07-24T06:00:18;8.13;;;6.17;;
10537;SDS011;5317;49.048;8.468;2023-07-24T06:02:46;7.93;;;6.23;;
10537;SDS011;5317;49.048;8.468;2023-07-24T06:05:13;7.43;;;6.60;;
10537;SDS011;5317;49.048;8.468;2023-07-24T06:07:40;7.60;;;6.47;;
10537;SDS011;5317;49.048;8.468;2023-07-24T06:10:07;6.97;;;6.20;;
10537;SDS011;5317;49.048;8.468;2023-07-24T06:12:34;7.50;;;6.00;;
10537;SDS011;5317;49.048;8.468;2023-07-24T06:15:01;7.97;;;7.00;;
10537;SDS011;5317;49.048;8.468;2023-07-24T06:17:28;8.13;;;6.30;;
10537;SDS011;5317;49.048;8.468;2023-07-24T06:19:56;9.57;;;7.23;;
10537;SDS011;5317;49.048;8.468;2023-07-24T06:22:23;9.03;;;6.77;;
10537;SDS011;5317;49.048;8.468;2023-07-24T06:24:50;7.57;;;6.43;;
10537;SDS011;5317;49.048;8.468;2023-07-24T06:27:17;8.13;;;6.73;;
10537;SDS011;5317;49.048;8.468;2023-07-24T06:29:44;8.77;;;6.80;;
10537;SDS011;5317;49.048;8.468;2023-07-24T06:32:10;9.30;;;6.80;;
10537;SDS011;5317;49.048;8.468;2023-07-24T06:34:37;7.13;;;6.30;;
10537;SDS011;5317;49.048;8.468;2023-07-24T06:37:05;8.00;;;7.00;;
10537;SDS011;5317;49.048;8.468;2023-07-24T06:39:32;7.77;;;6.20;;
10537;SDS011;5317;49.048;8.468;2023-07-24T06:41:59;8.53;;;6.33;;
10537;SDS011;5317;49.048;8.468;2023-07-24T06:44:26;6.57;;;5.87;;
10537;SDS011;5317;49.048;8.468;2023-07-24T06:46:53;8.10;;;6.50;;
10537;SDS011;5317;49.048;8.468;2023-07-24T06:49:20;7.67;;;6.50;;
10537;SDS011;5317;49.048;8.468;2023-07-24T06:51:49;8.43;;;6.77;;
10537;SDS011;5317;49.048;8.468;2023-07-24T06:54:17;9.23;;;7.27;;
10537;SDS011;5317;49.048;8.468;2023-07-24T06:56:44;9.53;;;6.40;;
10537;SDS011;5317;49.048;8.468;2023-07-24T06:59:10;8.93;;;6.53;;
10537;SDS011;5317;49.048;8.468;2023-07-24T07:01:37;12.17;;;7.40;;
10537;SDS011;5317;49.048;8.468;2023-07-24T07:04:04;8.47;;;6.80;;
10537;SDS011;5317;49.048;8.468;2023-07-24T07:06:31;9.50;;;6.33;;
10537;SDS011;5317;49.048;8.468;2023-07-24T07:08:57;8.03;;;6.93;;
10537;SDS011;5317;49.048;8.468;2023-07-24T07:11:26;8.77;;;6.57;;
10537;SDS011;5317;49.048;8.468;2023-07-24T07:13:52;9.40;;;6.90;;
10537;SDS011;5317;49.048;8.468;2023-07-24T07:16:19;7.77;;;6.70;;
10537;SDS011;5317;49.048;8.468;2023-07-24T07:18:46;8.40;;;6.83;;
10537;SDS011;5317;49.048;8.468;2023-07-24T07:21:13;8.73;;;7.20;;
10537;SDS011;5317;49.048;8.468;2023-07-24T07:23:40;9.23;;;7.27;;
10537;SDS011;5317;49.048;8.468;2023-07-24T07:26:06;8.30;;;6.80;;
10537;SDS011;5317;49.048;8.468;2023-07-24T07:28:35;8.57;;;6.87;;
10537;SDS011;5317;49.048;8.468;2023-07-24T07:31:02;8.83;;;6.50;;
10537;SDS011;5317;49.048;8.468;2023-07-24T07:33:29;8.23;;;7.13;;
10537;SDS011;5317;49.048;8.468;2023-07-24T07:35:56;9.13;;;7.07;;
10537;SDS011;5317;49.048;8.468;2023-07-24T07:38:22;8.30;;;6.87;;
10537;SDS011;5317;49.048;8.468;2023-07-24T07:40:49;9.80;;;7.87;;
10537;SDS011;5317;49.048;8.468;2023-07-24T07:43:16;10.03;;;7.47;;
10537;SDS011;5317;49.048;8.468;2023-07-24T07:45:44;9.00;;;7.27;;
10537;SDS011;5317;49.048;8.468;2023-07-24T07:48:12;9.23;;;7.07;;
10537;SDS011;5317;49.048;8.468;2023-07-24T07:50:39;10.80;;;7.20;;
10537;SDS011;5317;49.048;8.468;2023-07-24T07:53:06;12.43;;;7.83;;
10537;SDS011;5317;49.048;8.468;2023-07-24T07:55:33;7.73;;;6.80;;
10537;SDS011;5317;49.048;8.468;2023-07-24T07:57:59;8.57;;;7.33;;
10537;SDS011;5317;49.048;8.468;2023-07-24T08:00:26;9.77;;;7.43;;
10537;SDS011;5317;49.048;8.468;2023-07-24T08:02:55;9.13;;;7.00;;
10537;SDS011;5317;49.048;8.468;2023-07-24T08:05:21;9.47;;;7.20;;
10537;SDS011;5317;49.048;8.468;2023-07-24T08:07:48;8.80;;;7.13;;
10537;SDS011;5317;49.048;8.468;2023-07-24T08:10:15;9.13;;;7.17;;
10537;SDS011;5317;49.048;8.468;2023-07-24T08:12:42;10.43;;;7.43;;
10537;SDS011;5317;49.048;8.468;2023-07-24T08:15:09;10.00;;;7.87;;
10537;SDS011;5317;49.048;8.468;2023-07-24T08:17:36;7.43;;;6.50;;
10537;SDS011;5317;49.048;8.468;2023-07-24T08:20:05;8.00;;;7.00;;
10537;SDS011;5317;49.048;8.468;2023-07-24T08:22:32;10.50;;;7.93;;
10537;SDS011;5317;49.048;8.468;2023-07-24T08:24:59;9.73;;;7.30;;
10537;SDS011;5317;49.048;8.468;2023-07-24T08:27:26;8.10;;;7.03;;
10537;SDS011;5317;49.048;8.468;2023-07-24T08:29:53;9.87;;;7.40;;
10537;SDS011;5317;49.048;8.468;2023-07-24T08:32:20;9.93;;;7.67;;
10537;SDS011;5317;49.048;8.468;2023-07-24T08:34:47;10.07;;;7.30;;
10537;SDS011;5317;49.048;8.468;2023-07-24T08:37:15;11.20;;;7.50;;
10537;SDS011;5317;49.048;8.468;2023-07-24T08:39:42;9.20;;;7.77;;
10537;SDS011;5317;49.048;8.468;2023-07-24T08:42:09;10.30;;;7.83;;
10537;SDS011;5317;49.048;8.468;2023-07-24T08:44:37;10.37;;;8.00;;
10537;SDS011;5317;49.048;8.468;2023-07-24T08:47:04;10.10;;;8.03;;
10537;SDS011;5317;49.048;8.468;2023-07-24T08:49:36;10.63;;;8.07;;
10537;SDS011;5317;49.048;8.468;2023-07-24T08:52:05;10.17;;;7.87;;
10537;SDS011;5317;49.048;8.468;2023-07-24T08:54:34;8.83;;;7.60;;
10537;SDS011;5317;49.048;8.468;2023-07-24T08:57:02;10.07;;;7.20;;
10537;SDS011;5317;49.048;8.468;2023-07-24T08:59:32;8.80;;;7.43;;
10537;SDS011;5317;49.048;8.468;2023-07-24T09:01:58;9.87;;;7.43;;
10537;SDS011;5317;49.048;8.468;2023-07-24T09:04:25;9.93;;;7.43;;
10537;SDS011;5317;49.048;8.468;2023-07-24T09:06:53;9.40;;;7.20;;
10537;SDS011;5317;49.048;8.468;2023-07-24T09:09:22;8.93;;;7.33;;
10537;SDS011;5317;49.048;8.468;2023-07-24T09:11:51;9.03;;;7.23;;
10537;SDS011;5317;49.048;8.468;2023-07-24T09:14:22;9.03;;;7.50;;
10537;SDS011;5317;49.048;8.468;2023-07-24T09:16:49;10.17;;;7.30;;
10537;SDS011;5317;49.048;8.468;2023-07-24T09:19:27;9.30;;;7.07;;
10537;SDS011;5317;49.048;8.468;2023-07-24T09:21:54;8.40;;;7.43;;
10537;SDS011;5317;49.048;8.468;2023-07-24T09:24:21;9.80;;;7.00;;
10537;SDS011;5317;49.048;8.468;2023-07-24T09:26:48;8.30;;;6.53;;
10537;SDS011;5317;49.048;8.468;2023-07-24T09:29:17;8.30;;;6.63;;
10537;SDS011;5317;49.048;8.468;2023-07-24T09:31:45;7.73;;;6.60;;
10537;SDS011;5317;49.048;8.468;2023-07-24T09:34:18;9.63;;;6.90;;
10537;SDS011;5317;49.048;8.468;2023-07-24T09:36:46;8.77;;;6.90;;
10537;SDS011;5317;49.048;8.468;2023-07-24T09:39:13;7.63;;;6.77;;
10537;SDS011;5317;49.048;8.468;2023-07-24T09:41:40;8.40;;;6.60;;
10537;SDS011;5317;49.048;8.468;2023-07-24T09:44:11;6.80;;;6.10;;
10537;SDS011;5317;49.048;8.468;2023-07-24T09:46:38;8.50;;;6.97;;
10537;SDS011;5317;49.048;8.468;2023-07-24T09:49:06;9.23;;;6.30;;
10537;SDS011;5317;49.048;8.468;2023-07-24T09:51:33;7.83;;;6.47;;
10537;SDS011;5317;49.048;8.468;2023-07-24T09:54:01;8.03;;;6.70;;
10537;SDS011;5317;49.048;8.468;2023-07-24T09:56:33;6.87;;;6.10;;
10537;SDS011;5317;49.048;8.468;2023-07-24T09:59:02;7.40;;;6.20;;
10537;SDS011;5317;49.048;8.468;2023-07-24T10:01:32;8.13;;;5.93;;
10537;SDS011;5317;49.048;8.468;2023-07-24T10:03:59;8.20;;;6.57;;
10537;SDS011;5317;49.048;8.468;2023-07-24T10:06:26;8.30;;;6.90;;
10537;SDS011;5317;49.048;8.468;2023-07-24T10:08:55;7.07;;;6.07;;
10537;SDS011;5317;49.048;8.468;2023-07-24T10:11:22;7.03;;;6.23;;
10537;SDS011;5317;49.048;8.468;2023-07-24T10:13:50;7.73;;;6.37;;
10537;SDS011;5317;49.048;8.468;2023-07-24T10:16:18;7.13;;;6.43;;
10537;SDS011;5317;49.048;8.468;2023-07-24T10:18:47;7.60;;;6.90;;
10537;SDS011;5317;49.048;8.468;2023-07-24T10:21:14;7.47;;;6.40;;
10537;SDS011;5317;49.048;8.468;2023-07-24T10:23:41;8.63;;;6.60;;
10537;SDS011;5317;49.048;8.468;2023-07-24T10:26:09;8.83;;;6.03;;
10537;SDS011;5317;49.048;8.468;2023-07-24T10:28:37;7.43;;;6.67;;
10537;SDS011;5317;49.048;8.468;2023-07-24T10:31:05;8.00;;;6.47;;
10537;SDS011;5317;49.048;8.468;2023-07-24T10:33:34;7.70;;;6.60;;
10537;SDS011;5317;49.048;8.468;2023-07-24T10:36:06;7.77;;;6.97;;
10537;SDS011;5317;49.048;8.468;2023-07-24T10:38:36;7.07;;;6.37;;
10537;SDS011;5317;49.048;8.468;2023-07-24T10:41:04;7.07;;;6.37;;
10537;SDS011;5317;49.048;8.468;2023-07-24T10:43:39;9.23;;;6.33;;
10537;SDS011;5317;49.048;8.468;2023-07-24T10:46:07;7.20;;;6.33;;
10537;SDS011;5317;49.048;8.468;2023-07-24T10:48:34;7.13;;;6.43;;
10537;SDS011;5317;49.048;8.468;2023-07-24T10:51:07;7.67;;;6.70;;
10537;SDS011;5317;49.048;8.468;2023-07-24T10:53:35;8.43;;;6.00;;
10537;SDS011;5317;49.048;8.468;2023-07-24T10:56:02;6.77;;;6.07;;
10537;SDS011;5317;49.048;8.468;2023-07-24T10:58:30;6.80;;;6.10;;
10537;SDS011;5317;49.048;8.468;2023-07-24T11:00:57;7.33;;;6.53;;
10537;SDS011;5317;49.048;8.468;2023-07-24T11:03:25;8.67;;;6.20;;
10537;SDS011;5317;49.048;8.468;2023-07-24T11:05:52;7.20;;;6.30;;
10537;SDS011;5317;49.048;8.468;2023-07-24T11:08:21;7.27;;;6.03;;
10537;SDS011;5317;49.048;8.468;2023-07-24T11:10:49;7.07;;;5.67;;
10537;SDS011;5317;49.048;8.468;2023-07-24T11:13:17;7.20;;;5.60;;
10537;SDS011;5317;49.048;8.468;2023-07-24T11:15:45;6.30;;;5.70;;
10537;SDS011;5317;49.048;8.468;2023-07-24T11:18:12;8.17;;;6.10;;
10537;SDS011;5317;49.048;8.468;2023-07-24T11:20:43;7.33;;;6.40;;
10537;SDS011;5317;49.048;8.468;2023-07-24T11:23:11;7.03;;;5.70;;
10537;SDS011;5317;49.048;8.468;2023-07-24T11:25:42;5.83;;;5.27;;
10537;SDS011;5317;49.048;8.468;2023-07-24T11:28:09;7.13;;;5.97;;
10537;SDS011;5317;49.048;8.468;2023-07-24T11:30:37;6.73;;;6.00;;
10537;SDS011;5317;49.048;8.468;2023-07-24T11:33:05;7.40;;;5.70;;
10537;SDS011;5317;49.048;8.468;2023-07-24T11:35:33;6.67;;;5.67;;
10537;SDS011;5317;49.048;8.468;2023-07-24T11:38:00;6.87;;;6.17;;
10537;SDS011;5317;49.048;8.468;2023-07-24T11:40:31;6.87;;;6.10;;
10537;SDS011;5317;49.048;8.468;2023-07-24T11:43:00;7.13;;;6.13;;
10537;SDS011;5317;49.048;8.468;2023-07-24T11:45:28;7.70;;;6.47;;
10537;SDS011;5317;49.048;8.468;2023-07-24T11:47:55;7.07;;;5.73;;
10537;SDS011;5317;49.048;8.468;2023-07-24T11:50:22;7.13;;;5.87;;
10537;SDS011;5317;49.048;8.468;2023-07-24T11:52:50;7.60;;;5.97;;
10537;SDS011;5317;49.048;8.468;2023-07-24T11:55:18;6.67;;;5.97;;
10537;SDS011;5317;49.048;8.468;2023-07-24T11:57:55;6.70;;;5.97;;
10537;SDS011;5317;49.048;8.468;2023-07-24T12:00:24;6.93;;;6.10;;
10537;SDS011;5317;49.048;8.468;2023-07-24T12:02:51;8.37;;;6.33;;
10537;SDS011;5317;49.048;8.468;2023-07-24T12:05:18;7.77;;;6.23;;
10537;SDS011;5317;49.048;8.468;2023-07-24T12:07:45;8.57;;;6.17;;
10537;SDS011;5317;49.048;8.468;2023-07-24T12:10:13;6.50;;;5.80;;
10537;SDS011;5317;49.048;8.468;2023-07-24T12:12:51;9.47;;;6.17;;
10537;SDS011;5317;49.048;8.468;2023-07-24T12:15:18;8.80;;;5.83;;
10537;SDS011;5317;49.048;8.468;2023-07-24T12:17:46;6.40;;;5.80;;
10537;SDS011;5317;49.048;8.468;2023-07-24T12:20:13;6.70;;;5.67;;
10537;SDS011;5317;49.048;8.468;2023-07-24T12:22:40;8.53;;;6.40;;
10537;SDS011;5317;49.048;8.468;2023-07-24T12:25:07;6.70;;;5.97;;
10537;SDS011;5317;49.048;8.468;2023-07-24T12:27:34;7.60;;;5.67;;
10537;SDS011;5317;49.048;8.468;2023-07-24T12:30:02;6.83;;;5.73;;
10537;SDS011;5317;49.048;8.468;2023-07-24T12:32:31;6.57;;;5.20;;
10537;SDS011;5317;49.048;8.468;2023-07-24T12:34:59;6.77;;;6.07;;
10537;SDS011;5317;49.048;8.468;2023-07-24T12:37:26;7.30;;;6.20;;
10537;SDS011;5317;49.048;8.468;2023-07-24T12:39:53;6.67;;;5.53;;
10537;SDS011;5317;49.048;8.468;2023-07-24T12:42:20;7.07;;;5.70;;
10537;SDS011;5317;49.048;8.468;2023-07-24T12:44:48;6.67;;;5.83;;
10537;SDS011;5317;49.048;8.468;2023-07-24T12:47:15;7.47;;;5.80;;
10537;SDS011;5317;49.048;8.468;2023-07-24T12:49:42;6.43;;;5.60;;
10537;SDS011;5317;49.048;8.468;2023-07-24T12:52:10;7.23;;;5.73;;
10537;SDS011;5317;49.048;8.468;2023-07-24T12:54:37;6.57;;;5.50;;
10537;SDS011;5317;49.048;8.468;2023-07-24T12:57:04;5.80;;;5.20;;
10537;SDS011;5317;49.048;8.468;2023-07-24T12:59:31;8.23;;;5.67;;
10537;SDS011;5317;49.048;8.468;2023-07-24T13:01:58;6.20;;;5.40;;
10537;SDS011;5317;49.048;8.468;2023-07-24T13:04:25;6.43;;;5.50;;
10537;SDS011;5317;49.048;8.468;2023-07-24T13:06:52;7.00;;;6.10;;
10537;SDS011;5317;49.048;8.468;2023-07-24T13:09:20;6.07;;;5.30;;
10537;SDS011;5317;49.048;8.468;2023-07-24T13:11:48;6.03;;;5.33;;
10537;SDS011;5317;49.048;8.468;2023-07-24T13:14:16;6.33;;;5.43;;
10537;SDS011;5317;49.048;8.468;2023-07-24T13:16:44;5.53;;;4.93;;
10537;SDS011;5317;49.048;8.468;2023-07-24T13:19:10;5.33;;;4.70;;
10537;SDS011;5317;49.048;8.468;2023-07-24T13:21:37;6.33;;;5.67;;
10537;SDS011;5317;49.048;8.468;2023-07-24T13:24:05;6.30;;;5.70;;
10537;SDS011;5317;49.048;8.468;2023-07-24T13:26:33;6.73;;;5.90;;
10537;SDS011;5317;49.048;8.468;2023-07-24T13:29:00;5.60;;;5.00;;
10537;SDS011;5317;49.048;8.468;2023-07-24T13:31:27;5.60;;;4.93;;
10537;SDS011;5317;49.048;8.468;2023-07-24T13:33:54;6.87;;;5.07;;
10537;SDS011;5317;49.048;8.468;2023-07-24T13:36:21;5.83;;;5.20;;
10537;SDS011;5317;49.048;8.468;2023-07-24T13:38:48;5.77;;;5.00;;
10537;SDS011;5317;49.048;8.468;2023-07-24T13:41:15;5.93;;;5.10;;
10537;SDS011;5317;49.048;8.468;2023-07-24T13:43:43;5.87;;;5.27;;
10537;SDS011;5317;49.048;8.468;2023-07-24T13:46:10;5.47;;;4.97;;
10537;SDS011;5317;49.048;8.468;2023-07-24T13:48:40;6.07;;;5.40;;
10537;SDS011;5317;49.048;8.468;2023-07-24T13:51:06;5.33;;;4.83;;
10537;SDS011;5317;49.048;8.468;2023-07-24T13:53:33;6.37;;;4.90;;
10537;SDS011;5317;49.048;8.468;2023-07-24T13:56:01;5.77;;;5.17;;
10537;SDS011;5317;49.048;8.468;2023-07-24T13:58:28;6.57;;;4.93;;
10537;SDS011;5317;49.048;8.468;2023-07-24T14:01:08;7.20;;;5.53;;
10537;SDS011;5317;49.048;8.468;2023-07-24T14:03:35;6.20;;;5.27;;
10537;SDS011;5317;49.048;8.468;2023-07-24T14:06:02;5.53;;;4.80;;
10537;SDS011;5317;49.048;8.468;2023-07-24T14:08:29;5.37;;;4.87;;
10537;SDS011;5317;49.048;8.468;2023-07-24T14:10:56;5.63;;;5.07;;
10537;SDS011;5317;49.048;8.468;2023-07-24T14:13:23;5.90;;;4.90;;
10537;SDS011;5317;49.048;8.468;2023-07-24T14:15:50;5.90;;;5.20;;
10537;SDS011;5317;49.048;8.468;2023-07-24T14:18:18;6.30;;;5.00;;
10537;SDS011;5317;49.048;8.468;2023-07-24T14:20:47;7.00;;;5.30;;
10537;SDS011;5317;49.048;8.468;2023-07-24T14:23:13;5.37;;;4.77;;
10537;SDS011;5317;49.048;8.468;2023-07-24T14:25:40;7.63;;;5.40;;
10537;SDS011;5317;49.048;8.468;2023-07-24T14:28:07;5.93;;;5.10;;
10537;SDS011;5317;49.048;8.468;2023-07-24T14:30:34;5.97;;;5.10;;
10537;SDS011;5317;49.048;8.468;2023-07-24T14:33:01;6.10;;;5.17;;
10537;SDS011;5317;49.048;8.468;2023-07-24T14:35:29;6.77;;;4.57;;
10537;SDS011;5317;49.048;8.468;2023-07-24T14:37:56;5.20;;;4.70;;
10537;SDS011;5317;49.048;8.468;2023-07-24T14:40:23;5.67;;;4.70;;
10537;SDS011;5317;49.048;8.468;2023-07-24T14:42:50;6.27;;;4.70;;
10537;SDS011;5317;49.048;8.468;2023-07-24T14:45:17;5.53;;;4.60;;
10537;SDS011;5317;49.048;8.468;2023-07-24T14:47:44;4.63;;;4.10;;
10537;SDS011;5317;49.048;8.468;2023-07-24T14:50:10;4.60;;;4.10;;
10537;SDS011;5317;49.048;8.468;2023-07-24T14:52:38;7.20;;;5.03;;
10537;SDS011;5317;49.048;8.468;2023-07-24T14:55:06;4.43;;;4.03;;
10537;SDS011;5317;49.048;8.468;2023-07-24T14:57:33;8.73;;;4.50;;
10537;SDS011;5317;49.048;8.468;2023-07-24T15:00:01;6.20;;;3.97;;
10537;SDS011;5317;49.048;8.468;2023-07-24T15:02:28;4.30;;;3.90;;